Terminal Aerodrome Forecast
Issued by NWS Topeka, KS

Home | Current Version | Previous Version | Graphics & Text | Print | Product List | Glossary On
Versions: 1 2 3 4 5 6 7 8 9 10 11 12 13 14 15 16 17 18 19 20 21 22 23 24 25 26 27 28 29
000
FTUS43 KTOP 241200 AAA
TAFTOP
TAF AMD
KTOP 241257Z 2413/2512 10014G18KT P6SM -DZ SCT030 OVC070
     FM241500 09012KT 6SM -DZ BR SCT015 OVC020
      TEMPO 2416/2420 3SM -TSRA BKN014 OVC020CB
     FM242100 30008KT 6SM BR SCT018 OVC020
     FM250100 VRB03KT P6SM FEW025 SCT150=

USA.gov is the U.S. government's official web portal to all federal, state and local government web resources and services.